Flight Track Log - Related Links

Times and Time Zones

All times are in EDT time to prevent confusion due to time zone crossing. See the ASQ4093 flight status page for this flight to view local times or setup timezone preferences in your user account.

Time Position Orientation Groundspeed Altitude Reporting Facility
EDT Latitude Longitude Course Direction KTS MPH feet Rate Location/Type
Thu 07:06:23 AM 34.7156 -92.2519 204° Southwest 229 264 800  Level Memphis Center
Thu 07:07:29 AM 34.6714 -92.2764 187° South 172 198 3,600 1,984 Climbing Memphis Center
Thu 07:08:30 AM 34.6108 -92.2850 191° South 225 259 5,000 1,714 Climbing Memphis Center
Thu 07:10:17 AM 34.4933 -92.3125 172° South 279 321 8,400 1,832 Climbing Memphis Center
Thu 07:11:17 AM 34.4122 -92.2981 172° South 279 321 10,100 1,600 Climbing Memphis Center
Thu 07:12:17 AM 34.3250 -92.2836 189° South 300 345 11,600 1,250 Climbing Memphis Center
Thu 07:13:17 AM 34.2328 -92.3017 188° South 323 372 12,600 1,550 Climbing Memphis Center
Thu 07:14:17 AM 34.1303 -92.3194 189° South 352 405 14,700 2,050 Climbing Memphis Center
Thu 07:15:17 AM 34.0319 -92.3372 187° South 350 403 16,700 1,416 Climbing Memphis Center
Thu 07:16:58 AM 33.8631 -92.3636 188° South 352 405 18,500 1,043 Climbing Fort Worth Center
Thu 07:17:58 AM 33.7575 -92.3822 187° South 369 425 19,500 1,050 Climbing Fort Worth Center
Thu 07:18:58 AM 33.6475 -92.3983 189° South 391 450 20,600 1,100 Climbing Fort Worth Center
Thu 07:19:58 AM 33.5378 -92.4197 187° South 397 457 21,700 1,200 Climbing Fort Worth Center
Thu 07:20:58 AM 33.4236 -92.4361 189° South 410 472 23,000 1,300 Climbing Fort Worth Center
Thu 07:21:58 AM 33.3117 -92.4572 187° South 410 472 24,300 1,350 Climbing Fort Worth Center
Thu 07:22:58 AM 33.1997 -92.4733 188° South 410 472 25,700 1,400 Climbing Fort Worth Center
Thu 07:23:58 AM 33.0856 -92.4922 187° South 410 472 27,100 1,400 Climbing Fort Worth Center
Thu 07:24:58 AM 32.9797 -92.5081 189° South 404 465 28,500 1,250 Climbing Fort Worth Center
Thu 07:25:58 AM 32.8722 -92.5286 188° South 404 465 29,600 750 Climbing Fort Worth Center
Thu 07:26:58 AM 32.7603 -92.5472 187° South 409 471 30,000 200 Climbing Fort Worth Center
Thu 07:27:58 AM 32.6378 -92.5661 191° South 426 490 30,000  Level Fort Worth Center
Thu 07:28:29 AM 32.5836 -92.5792 189° South 448 516 30,000  Level Houston Center
Thu 07:29:29 AM 32.4564 -92.6025 190° South 468 539 30,000  Level Houston Center
Thu 07:30:29 AM 32.3164 -92.6308 185° South 468 539 30,000  Level Houston Center
Thu 07:31:29 AM 32.2017 -92.6417 188° South 468 539 30,000  Level Houston Center
Thu 07:32:29 AM 32.0744 -92.6625 195° South 468 539 30,000  Level Houston Center
Thu 07:33:29 AM 31.9511 -92.7006 219° Southwest 468 539 30,000  Level Houston Center
Thu 07:34:29 AM 31.8544 -92.7922 220° Southwest 438 504 30,000  Level Houston Center
Thu 07:35:29 AM 31.7617 -92.8839 221° Southwest 443 510 30,000  Level Houston Center
Thu 07:36:29 AM 31.6692 -92.9778 219° Southwest 443 510 30,000  Level Houston Center
Thu 07:37:29 AM 31.5744 -93.0667 219° Southwest 448 516 30,000 -50 Level Houston Center
Thu 07:38:29 AM 31.4775 -93.1578 219° Southwest 448 516 29,900  Descending Houston Center
Thu 07:39:29 AM 31.3825 -93.2489 218° Southwest 448 516 30,000 50 Climbing Houston Center
Thu 07:40:29 AM 31.2811 -93.3419 221° Southwest 453 521 30,000  Level Houston Center
Thu 07:41:29 AM 31.1903 -93.4350 219° Southwest 446 513 30,000 -50 Level Houston Center
Thu 07:42:30 AM 31.0931 -93.5256 219° Southwest 446 513 29,900 -50 Descending Houston Center
Thu 07:43:30 AM 30.9981 -93.6156 219° Southwest 451 519 29,900 -706 Level Houston Center
Thu 07:44:29 AM 30.9028 -93.7058 219° Southwest 451 519 28,500 -2,100 Descending Houston Center
Thu 07:45:30 AM 30.7925 -93.8100 219° Southwest 457 526 25,700 -2,650 Descending Houston Center
Thu 07:46:29 AM 30.6972 -93.8997 219° Southwest 457 526 23,200 -2,471 Descending Houston Center
Thu 07:47:29 AM 30.6061 -93.9869 218° Southwest 446 513 20,800 -2,400 Descending Houston Center
Thu 07:48:29 AM 30.5147 -94.0692 219° Southwest 436 502 18,400 -2,400 Descending Houston Center
Thu 07:49:29 AM 30.4258 -94.1514 219° Southwest 425 489 16,000 -2,400 Descending Houston Center
Thu 07:50:29 AM 30.3364 -94.2358 219° Southwest 419 482 13,600 -2,017 Descending Houston Center
Thu 07:51:25 AM 30.2600 -94.3083 225° Southwest 392 451 12,100 -800 Descending Houston Center
Thu 07:52:29 AM 30.1872 -94.3931 248° West 378 435 12,000 -288 Descending Houston Center
Thu 07:53:30 AM 30.1542 -94.4858 246° West 342 394 11,500 -843 Descending Houston Center
Thu 07:54:30 AM 30.1208 -94.5736 245° Southwest 319 367 10,300 -1,475 Descending Houston Center
Thu 07:55:28 AM 30.0856 -94.6592 249° West 289 333 8,600 -1,664 Descending Houston Center
Thu 07:56:29 AM 30.0567 -94.7469 247° West 288 331 7,000 -1,475 Descending Houston Center
Thu 07:57:30 AM 30.0275 -94.8253 248° West 288 331 5,600 -1,000 Descending Houston Center
Thu 07:58:29 AM 29.9986 -94.9058 265° West 288 331 5,000 -303 Descending Houston Center
Thu 07:59:29 AM 29.9925 -94.9847 270° West 278 320 5,000 -347 Level Houston Center
Thu 08:00:30 AM 29.9925 -95.0736 270° West 278 320 4,300 -1,050 Descending Houston Center
Thu 08:01:29 AM 29.9922 -95.1575 270° West 272 313 2,900 -1,246 Descending Houston Center
Thu 08:02:40 AM 29.9919 -95.2486 273° West 192 221 1,600 -992 Descending Houston Center
Thu 08:03:30 AM 29.9933 -95.2797 273° West 212 244 900 -840 Descending Houston Center

Login

Don't have an account? Register now (free) for customized features, flight alerts, and more!